createdAt,value
2018-12-19T00:00:22.431Z,1006.28
2018-12-19T00:00:48.540Z,1006.27
2018-12-19T00:01:14.647Z,1006.26
2018-12-19T00:01:40.756Z,1006.27
2018-12-19T00:02:06.867Z,1006.27
2018-12-19T00:02:32.968Z,1006.28
2018-12-19T00:02:59.067Z,1006.26
2018-12-19T00:03:25.194Z,1006.22
2018-12-19T00:03:51.305Z,1006.18
2018-12-19T00:04:17.401Z,1006.2
2018-12-19T00:04:43.537Z,1006.17
2018-12-19T00:05:09.655Z,1006.16
2018-12-19T00:05:35.766Z,1006.13
2018-12-19T00:06:01.867Z,1006.12
2018-12-19T00:06:27.972Z,1006.14
2018-12-19T00:06:54.109Z,1006.15
2018-12-19T00:07:20.209Z,1006.08
2018-12-19T00:07:46.312Z,1006.11
2018-12-19T00:08:12.421Z,1006.07
2018-12-19T00:08:38.530Z,1006.08
2018-12-19T00:09:05.624Z,1006.04
2018-12-19T00:09:31.730Z,1006.05
2018-12-19T00:09:57.834Z,1006.06
2018-12-19T00:10:23.967Z,1006.03
2018-12-19T00:10:50.078Z,1006.04
2018-12-19T00:11:16.180Z,1006.07
2018-12-19T00:11:42.288Z,1006.02
2018-12-19T00:12:08.390Z,1006.02
2018-12-19T00:12:34.500Z,1006.02
2018-12-19T00:13:00.624Z,1006.03
2018-12-19T00:13:26.759Z,1005.99
2018-12-19T00:13:52.859Z,1005.98
2018-12-19T00:14:18.963Z,1005.94
2018-12-19T00:14:45.070Z,1005.95
2018-12-19T00:15:11.211Z,1005.98
2018-12-19T00:15:37.344Z,1005.92
2018-12-19T00:16:03.477Z,1005.92
2018-12-19T00:16:29.616Z,1005.89
2018-12-19T00:16:55.736Z,1005.84
2018-12-19T00:17:21.845Z,1005.87
2018-12-19T00:17:47.981Z,1005.82
2018-12-19T00:18:14.086Z,1005.86
2018-12-19T00:18:40.220Z,1005.82
2018-12-19T00:19:06.324Z,1005.81
2018-12-19T00:19:32.427Z,1005.8
2018-12-19T00:19:58.570Z,1005.75
2018-12-19T00:20:24.681Z,1005.79
2018-12-19T00:20:50.778Z,1005.8
2018-12-19T00:21:16.876Z,1005.78
2018-12-19T00:21:42.984Z,1005.79
2018-12-19T00:22:09.091Z,1005.77
2018-12-19T00:22:35.252Z,1005.72
2018-12-19T00:23:01.394Z,1005.73
2018-12-19T00:23:27.496Z,1005.72
2018-12-19T00:23:53.598Z,1005.64
2018-12-19T00:24:19.699Z,1005.66
2018-12-19T00:24:45.798Z,1005.67
2018-12-19T00:25:11.909Z,1005.61
2018-12-19T00:25:38.046Z,1005.61
2018-12-19T00:26:04.180Z,1005.64
2018-12-19T00:26:30.284Z,1005.61
2018-12-19T00:26:56.394Z,1005.62
2018-12-19T00:27:22.499Z,1005.61
2018-12-19T00:27:48.639Z,1005.64
2018-12-19T00:28:14.744Z,1005.65
2018-12-19T00:28:40.852Z,1005.64
2018-12-19T00:29:06.960Z,1005.66
2018-12-19T00:29:33.060Z,1005.62
2018-12-19T00:29:59.169Z,1005.63
2018-12-19T00:30:25.271Z,1005.59
2018-12-19T00:30:51.374Z,1005.6
2018-12-19T00:31:17.486Z,1005.6
2018-12-19T00:31:43.598Z,1005.63
2018-12-19T00:32:09.699Z,1005.57
2018-12-19T00:32:35.805Z,1005.57
2018-12-19T00:33:01.906Z,1005.57
2018-12-19T00:33:28.009Z,1005.54
2018-12-19T00:33:54.145Z,1005.56
2018-12-19T00:34:20.248Z,1005.56
2018-12-19T00:34:46.355Z,1005.55
2018-12-19T00:35:12.466Z,1005.53
2018-12-19T00:35:38.566Z,1005.56
2018-12-19T00:36:04.673Z,1005.6
2018-12-19T00:36:30.835Z,1005.5
2018-12-19T00:36:56.938Z,1005.53
2018-12-19T00:37:23.044Z,1005.56
2018-12-19T00:37:49.154Z,1005.57
2018-12-19T00:38:15.263Z,1005.53
2018-12-19T00:38:41.365Z,1005.57
2018-12-19T00:39:09.605Z,1005.52
2018-12-19T00:39:34.565Z,1005.58
2018-12-19T00:40:00.674Z,1005.51
2018-12-19T00:40:26.777Z,1005.49
2018-12-19T00:40:52.891Z,1005.5
2018-12-19T00:41:19.002Z,1005.51
2018-12-19T00:41:45.103Z,1005.46
2018-12-19T00:42:11.245Z,1005.49
2018-12-19T00:42:37.352Z,1005.47
2018-12-19T00:43:03.455Z,1005.48
2018-12-19T00:43:29.558Z,1005.43
2018-12-19T00:43:55.699Z,1005.49
2018-12-19T00:44:22.497Z,1005.45
2018-12-19T00:44:48.605Z,1005.45
2018-12-19T00:45:14.702Z,1005.42
2018-12-19T00:45:40.812Z,1005.43
2018-12-19T00:46:06.941Z,1005.45
2018-12-19T00:46:33.070Z,1005.42
2018-12-19T00:46:59.199Z,1005.42
2018-12-19T00:47:25.312Z,1005.38
2018-12-19T00:47:51.414Z,1005.4
2018-12-19T00:48:17.519Z,1005.43
2018-12-19T00:48:43.624Z,1005.42
2018-12-19T00:49:09.736Z,1005.47
2018-12-19T00:49:35.836Z,1005.42
2018-12-19T00:50:01.942Z,1005.45
2018-12-19T00:50:28.068Z,1005.51
2018-12-19T00:50:54.194Z,1005.5
2018-12-19T00:51:20.299Z,1005.46
2018-12-19T00:51:46.409Z,1005.45
2018-12-19T00:52:12.516Z,1005.47
2018-12-19T00:52:38.623Z,1005.51
2018-12-19T00:53:04.727Z,1005.5
2018-12-19T00:53:30.834Z,1005.51
2018-12-19T00:53:56.937Z,1005.56
2018-12-19T00:54:23.035Z,1005.58
2018-12-19T00:54:49.143Z,1005.53
2018-12-19T00:55:15.272Z,1005.53
2018-12-19T00:55:41.382Z,1005.56
2018-12-19T00:56:07.492Z,1005.51
2018-12-19T00:56:33.596Z,1005.53
2018-12-19T00:56:59.703Z,1005.54
2018-12-19T00:57:25.800Z,1005.55
2018-12-19T00:57:51.905Z,1005.56
2018-12-19T00:58:18.011Z,1005.53
2018-12-19T00:58:44.113Z,1005.52
2018-12-19T00:59:10.255Z,1005.53
2018-12-19T00:59:36.359Z,1005.57
2018-12-19T01:00:02.472Z,1005.6
2018-12-19T01:00:28.610Z,1005.57
2018-12-19T01:00:54.771Z,1005.59
2018-12-19T01:01:20.875Z,1005.59
2018-12-19T01:01:46.976Z,1005.63
2018-12-19T01:02:13.087Z,1005.54
2018-12-19T01:02:39.190Z,1005.62
2018-12-19T01:03:05.312Z,1005.58
2018-12-19T01:03:31.420Z,1005.6
2018-12-19T01:03:57.528Z,1005.6
2018-12-19T01:04:23.626Z,1005.58
2018-12-19T01:04:49.747Z,1005.59
2018-12-19T01:05:15.856Z,1005.61
2018-12-19T01:05:41.965Z,1005.63
2018-12-19T01:06:08.069Z,1005.63
2018-12-19T01:06:34.180Z,1005.61
2018-12-19T01:07:00.285Z,1005.61
2018-12-19T01:07:26.393Z,1005.58
2018-12-19T01:07:52.494Z,1005.62
2018-12-19T01:08:18.601Z,1005.59
2018-12-19T01:08:44.709Z,1005.62
2018-12-19T01:09:15.845Z,1005.63
2018-12-19T01:09:37.905Z,1005.66
2018-12-19T01:10:04.017Z,1005.62
2018-12-19T01:10:30.121Z,1005.56
2018-12-19T01:10:56.250Z,1005.56
2018-12-19T01:11:22.363Z,1005.56
2018-12-19T01:11:48.467Z,1005.58
2018-12-19T01:12:14.574Z,1005.55
2018-12-19T01:12:40.678Z,1005.58
2018-12-19T01:13:06.812Z,1005.61
2018-12-19T01:13:32.916Z,1005.62
2018-12-19T01:13:59.021Z,1005.58
2018-12-19T01:14:25.133Z,1005.6
2018-12-19T01:14:51.236Z,1005.57
2018-12-19T01:15:17.338Z,1005.52
2018-12-19T01:15:43.441Z,1005.52
2018-12-19T01:16:09.549Z,1005.51
2018-12-19T01:16:35.651Z,1005.53
2018-12-19T01:17:01.779Z,1005.5
2018-12-19T01:17:27.894Z,1005.49
2018-12-19T01:17:54.009Z,1005.45
2018-12-19T01:18:20.136Z,1005.45
2018-12-19T01:18:46.294Z,1005.44
2018-12-19T01:19:12.402Z,1005.48
2018-12-19T01:19:38.497Z,1005.49
2018-12-19T01:20:04.610Z,1005.47
2018-12-19T01:20:30.741Z,1005.49
2018-12-19T01:20:56.875Z,1005.45
2018-12-19T01:21:22.982Z,1005.46
2018-12-19T01:21:49.078Z,1005.45
2018-12-19T01:22:15.181Z,1005.43
2018-12-19T01:22:41.286Z,1005.4
2018-12-19T01:23:07.492Z,1005.42
2018-12-19T01:23:33.540Z,1005.4
2018-12-19T01:23:59.647Z,1005.37
2018-12-19T01:24:25.754Z,1005.36
2018-12-19T01:24:51.864Z,1005.39
2018-12-19T01:25:17.966Z,1005.42
2018-12-19T01:25:44.076Z,1005.41
2018-12-19T01:26:10.191Z,1005.41
2018-12-19T01:26:36.302Z,1005.38
2018-12-19T01:27:02.404Z,1005.41
2018-12-19T01:27:28.507Z,1005.39
2018-12-19T01:27:54.636Z,1005.39
2018-12-19T01:28:20.776Z,1005.36
2018-12-19T01:28:46.872Z,1005.39
2018-12-19T01:29:12.982Z,1005.39
2018-12-19T01:29:39.088Z,1005.39
2018-12-19T01:30:05.192Z,1005.37
2018-12-19T01:30:31.307Z,1005.34
2018-12-19T01:30:57.407Z,1005.35
2018-12-19T01:31:23.550Z,1005.34
2018-12-19T01:31:49.655Z,1005.31
2018-12-19T01:32:15.760Z,1005.29
2018-12-19T01:32:42.041Z,1005.29
2018-12-19T01:33:08.148Z,1005.29
2018-12-19T01:33:34.303Z,1005.25
2018-12-19T01:34:00.418Z,1005.24
2018-12-19T01:34:26.544Z,1005.22
2018-12-19T01:34:52.652Z,1005.28
2018-12-19T01:35:18.790Z,1005.25
2018-12-19T01:35:44.923Z,1005.2
2018-12-19T01:36:11.031Z,1005.24
2018-12-19T01:36:37.129Z,1005.23
2018-12-19T01:37:03.236Z,1005.23
2018-12-19T01:37:29.338Z,1005.21
2018-12-19T01:37:55.472Z,1005.25
2018-12-19T01:38:21.602Z,1005.2
2018-12-19T01:38:47.710Z,1005.18
2018-12-19T01:39:13.816Z,1005.18
2018-12-19T01:39:39.939Z,1005.25
2018-12-19T01:40:06.054Z,1005.19
2018-12-19T01:40:32.187Z,1005.16
2018-12-19T01:40:58.321Z,1005.21
2018-12-19T01:41:24.465Z,1005.18
2018-12-19T01:41:50.568Z,1005.16
2018-12-19T01:42:16.674Z,1005.18
2018-12-19T01:42:42.775Z,1005.16
2018-12-19T01:43:08.877Z,1005.21
2018-12-19T01:43:34.988Z,1005.17
2018-12-19T01:44:01.116Z,1005.14
2018-12-19T01:44:27.221Z,1005.1
2018-12-19T01:44:53.325Z,1005.13
2018-12-19T01:45:19.467Z,1005.1
2018-12-19T01:45:45.567Z,1005.1
2018-12-19T01:46:11.672Z,1005.11
2018-12-19T01:46:37.788Z,1005.09
2018-12-19T01:47:03.948Z,1005.03
2018-12-19T01:47:30.064Z,1005.04
2018-12-19T01:47:56.168Z,1005.06
2018-12-19T01:48:22.267Z,1005.08
2018-12-19T01:48:48.381Z,1005.08
2018-12-19T01:49:14.488Z,1005.1
2018-12-19T01:49:40.583Z,1005.08
2018-12-19T01:50:06.690Z,1005.09
2018-12-19T01:50:32.793Z,1005.09
2018-12-19T01:50:58.929Z,1005.12
2018-12-19T01:51:25.070Z,1005.09
2018-12-19T01:51:51.177Z,1005.08
2018-12-19T01:52:17.283Z,1005.08
2018-12-19T01:52:43.386Z,1005.1
2018-12-19T01:53:09.493Z,1005.1
2018-12-19T01:53:35.594Z,1005.08
2018-12-19T01:54:01.702Z,1005.1
2018-12-19T01:54:27.809Z,1005.11
2018-12-19T01:54:53.913Z,1005.12
2018-12-19T01:55:20.016Z,1005.1
2018-12-19T01:55:46.126Z,1005.15
2018-12-19T01:56:12.260Z,1005.09
2018-12-19T01:56:38.368Z,1005.05
2018-12-19T01:57:04.498Z,1005.07
2018-12-19T01:57:30.607Z,1005.03
2018-12-19T01:57:56.710Z,1005.01
2018-12-19T01:58:22.814Z,1004.99
2018-12-19T01:58:48.923Z,1004.93
2018-12-19T01:59:15.030Z,1004.91
2018-12-19T01:59:41.168Z,1004.9
2018-12-19T02:00:07.325Z,1004.96
2018-12-19T02:00:33.430Z,1004.96
2018-12-19T02:00:59.533Z,1004.95
2018-12-19T02:01:25.640Z,1004.96
2018-12-19T02:01:51.755Z,1004.95
2018-12-19T02:02:17.856Z,1004.92
2018-12-19T02:02:43.955Z,1004.95
2018-12-19T02:03:10.055Z,1004.93
2018-12-19T02:03:36.179Z,1005.01
2018-12-19T02:04:02.282Z,1005.04
2018-12-19T02:04:28.389Z,1005.01
2018-12-19T02:04:54.488Z,1004.98
2018-12-19T02:05:20.590Z,1005.02
2018-12-19T02:05:46.710Z,1005.03
2018-12-19T02:06:12.809Z,1005.07
2018-12-19T02:06:38.906Z,1005.03
2018-12-19T02:07:05.013Z,1005.02
2018-12-19T02:07:31.144Z,1005.06
2018-12-19T02:07:57.251Z,1005.04
2018-12-19T02:08:23.359Z,1004.99
2018-12-19T02:08:49.460Z,1004.97
2018-12-19T02:09:15.572Z,1004.99
2018-12-19T02:09:42.663Z,1004.96
2018-12-19T02:10:08.771Z,1004.94
2018-12-19T02:10:34.870Z,1004.94
2018-12-19T02:11:01.036Z,1004.9
2018-12-19T02:11:27.168Z,1004.91
2018-12-19T02:11:53.332Z,1004.97
2018-12-19T02:12:19.431Z,1004.99
2018-12-19T02:12:45.541Z,1004.99
2018-12-19T02:13:11.673Z,1004.93
2018-12-19T02:13:37.781Z,1004.98
2018-12-19T02:14:03.886Z,1004.98
2018-12-19T02:14:29.987Z,1004.99
2018-12-19T02:14:56.093Z,1005.02
2018-12-19T02:15:22.197Z,1005.01
2018-12-19T02:15:48.332Z,1005.01
2018-12-19T02:16:14.443Z,1004.97
2018-12-19T02:16:40.545Z,1004.93
2018-12-19T02:17:06.682Z,1004.93
2018-12-19T02:17:32.783Z,1004.9
2018-12-19T02:17:58.896Z,1004.9
2018-12-19T02:18:24.996Z,1004.89
2018-12-19T02:18:51.105Z,1004.92
2018-12-19T02:19:17.209Z,1004.92
2018-12-19T02:19:43.317Z,1004.9
2018-12-19T02:20:09.422Z,1004.9
2018-12-19T02:20:35.521Z,1004.86
2018-12-19T02:21:01.634Z,1004.89
2018-12-19T02:21:27.771Z,1004.88
2018-12-19T02:21:53.880Z,1004.89
2018-12-19T02:22:20.017Z,1004.85
2018-12-19T02:22:46.122Z,1004.91
2018-12-19T02:23:12.220Z,1004.89
2018-12-19T02:23:38.352Z,1004.88
2018-12-19T02:24:04.454Z,1004.81
2018-12-19T02:24:30.559Z,1004.89
2018-12-19T02:24:56.670Z,1004.94
2018-12-19T02:25:22.796Z,1004.92
2018-12-19T02:25:48.904Z,1004.97
2018-12-19T02:26:15.007Z,1004.92
2018-12-19T02:26:41.145Z,1004.92
2018-12-19T02:27:07.252Z,1004.94
2018-12-19T02:27:33.347Z,1004.91
2018-12-19T02:27:59.454Z,1004.92
2018-12-19T02:28:25.563Z,1004.97
2018-12-19T02:28:51.663Z,1004.97
2018-12-19T02:29:17.779Z,1005.01
2018-12-19T02:29:43.885Z,1004.99
2018-12-19T02:30:09.982Z,1004.97
2018-12-19T02:30:36.135Z,1004.99
2018-12-19T02:31:02.245Z,1004.93
2018-12-19T02:31:28.348Z,1004.93
2018-12-19T02:31:54.457Z,1004.88
2018-12-19T02:32:20.561Z,1004.9
2018-12-19T02:32:46.730Z,1004.97
2018-12-19T02:33:12.833Z,1004.98
2018-12-19T02:33:38.995Z,1005.08
2018-12-19T02:34:05.129Z,1005.11
2018-12-19T02:34:31.229Z,1005.14
2018-12-19T02:34:57.354Z,1005.11
2018-12-19T02:35:23.515Z,1005.15
2018-12-19T02:35:49.619Z,1005.15
2018-12-19T02:36:15.765Z,1005.15
2018-12-19T02:36:41.890Z,1005.17
2018-12-19T02:37:08.003Z,1005.17
2018-12-19T02:37:34.102Z,1005.14
2018-12-19T02:38:00.243Z,1005.14
2018-12-19T02:38:26.370Z,1005.15
2018-12-19T02:38:52.477Z,1005.12
2018-12-19T02:39:18.575Z,1005.15
2018-12-19T02:39:46.659Z,1005.24
2018-12-19T02:40:12.771Z,1005.22
2018-12-19T02:40:38.878Z,1005.26
2018-12-19T02:41:04.986Z,1005.22
2018-12-19T02:41:31.180Z,1005.22
2018-12-19T02:41:57.283Z,1005.28
2018-12-19T02:42:23.385Z,1005.29
2018-12-19T02:42:49.489Z,1005.35
2018-12-19T02:43:15.593Z,1005.26
2018-12-19T02:43:41.720Z,1005.25
2018-12-19T02:44:07.831Z,1005.22
2018-12-19T02:44:33.928Z,1005.26
2018-12-19T02:45:00.040Z,1005.29
2018-12-19T02:45:26.142Z,1005.26
2018-12-19T02:45:52.276Z,1005.27
2018-12-19T02:46:18.403Z,1005.28
2018-12-19T02:46:44.503Z,1005.28
2018-12-19T02:47:10.613Z,1005.29
2018-12-19T02:47:36.753Z,1005.31
2018-12-19T02:48:02.854Z,1005.25
2018-12-19T02:48:28.955Z,1005.26
2018-12-19T02:48:55.064Z,1005.21
2018-12-19T02:49:21.166Z,1005.23
2018-12-19T02:49:47.278Z,1005.27
2018-12-19T02:50:13.380Z,1005.28
2018-12-19T02:50:39.480Z,1005.24
2018-12-19T02:51:05.610Z,1005.27
2018-12-19T02:51:31.718Z,1005.26
2018-12-19T02:51:57.825Z,1005.23
2018-12-19T02:52:23.969Z,1005.21
2018-12-19T02:52:50.065Z,1005.24
2018-12-19T02:53:16.175Z,1005.26
2018-12-19T02:53:42.311Z,1005.23
2018-12-19T02:54:08.410Z,1005.23
2018-12-19T02:54:34.516Z,1005.24
2018-12-19T02:55:00.652Z,1005.23
2018-12-19T02:55:26.758Z,1005.15
2018-12-19T02:55:52.862Z,1005.18
2018-12-19T02:56:18.973Z,1005.12
2018-12-19T02:56:45.104Z,1005.19
2018-12-19T02:57:11.209Z,1005.12
2018-12-19T02:57:37.317Z,1005.16
2018-12-19T02:58:03.427Z,1005.15
2018-12-19T02:58:29.527Z,1005.13
2018-12-19T02:58:55.633Z,1005.14
2018-12-19T02:59:21.754Z,1005.18
2018-12-19T02:59:47.860Z,1005.15
2018-12-19T03:00:13.967Z,1005.16
2018-12-19T03:00:40.099Z,1005.19
2018-12-19T03:01:06.222Z,1005.19
2018-12-19T03:01:32.350Z,1005.12
2018-12-19T03:01:58.454Z,1005.15
2018-12-19T03:02:24.592Z,1005.16
2018-12-19T03:02:50.694Z,1005.16
2018-12-19T03:03:16.806Z,1005.15
2018-12-19T03:03:42.933Z,1005.1
2018-12-19T03:04:09.066Z,1005.15
2018-12-19T03:04:35.171Z,1005.14
2018-12-19T03:05:01.314Z,1005.1
2018-12-19T03:05:27.412Z,1005.06
2018-12-19T03:05:53.524Z,1005.1
2018-12-19T03:06:19.653Z,1005.07
2018-12-19T03:06:45.792Z,1005.12
2018-12-19T03:07:11.893Z,1005.1
2018-12-19T03:07:38.064Z,1005.04
2018-12-19T03:08:04.194Z,1005.08
2018-12-19T03:08:30.329Z,1005.06
2018-12-19T03:08:56.440Z,1005.04
2018-12-19T03:09:22.566Z,1005.02
2018-12-19T03:09:49.699Z,1005.07
2018-12-19T03:10:15.835Z,1005.04
2018-12-19T03:10:41.937Z,1005.05
2018-12-19T03:11:08.043Z,1005.02
2018-12-19T03:11:34.169Z,1005.05
2018-12-19T03:12:00.266Z,1005.05
2018-12-19T03:12:26.381Z,1005.09
2018-12-19T03:12:52.487Z,1005.08
2018-12-19T03:13:18.594Z,1005.09
2018-12-19T03:13:44.695Z,1005.08
2018-12-19T03:14:10.804Z,1005.16
2018-12-19T03:14:36.915Z,1005.11
2018-12-19T03:15:03.039Z,1005.16
2018-12-19T03:15:29.177Z,1005.1
2018-12-19T03:15:55.284Z,1005.15
2018-12-19T03:16:21.417Z,1005.19
2018-12-19T03:16:47.546Z,1005.17
2018-12-19T03:17:13.687Z,1005.19
2018-12-19T03:17:39.790Z,1005.18
2018-12-19T03:18:05.956Z,1005.21
2018-12-19T03:18:32.082Z,1005.19
2018-12-19T03:18:58.224Z,1005.12
2018-12-19T03:19:24.399Z,1005.2
2018-12-19T03:19:50.459Z,1005.1
2018-12-19T03:20:16.597Z,1005.16
2018-12-19T03:20:42.703Z,1005.15
2018-12-19T03:21:08.803Z,1005.13
2018-12-19T03:21:34.914Z,1005.19
2018-12-19T03:22:01.015Z,1005.12
2018-12-19T03:22:27.120Z,1005.11
2018-12-19T03:22:53.253Z,1005.14
2018-12-19T03:23:19.361Z,1005.08
2018-12-19T03:23:45.463Z,1005.11
2018-12-19T03:24:11.571Z,1005.11
2018-12-19T03:24:37.673Z,1005.12
2018-12-19T03:25:03.810Z,1005.08
2018-12-19T03:25:29.908Z,1005.06
2018-12-19T03:25:56.041Z,1005.09
2018-12-19T03:26:22.139Z,1005.1
2018-12-19T03:26:48.277Z,1005.07
2018-12-19T03:27:14.386Z,1005.07
2018-12-19T03:27:40.493Z,1004.97
2018-12-19T03:28:06.593Z,1005.06
2018-12-19T03:28:32.701Z,1005.01
2018-12-19T03:28:58.806Z,1005.02
2018-12-19T03:29:24.942Z,1005.02
2018-12-19T03:29:51.042Z,1004.93
2018-12-19T03:30:17.172Z,1004.91
2018-12-19T03:30:43.328Z,1004.93
2018-12-19T03:31:09.492Z,1004.93
2018-12-19T03:31:35.625Z,1004.97
2018-12-19T03:32:01.803Z,1005.04
2018-12-19T03:32:27.933Z,1004.98
2018-12-19T03:32:54.108Z,1004.97
2018-12-19T03:33:20.244Z,1004.96
2018-12-19T03:33:46.344Z,1005.01
2018-12-19T03:34:12.453Z,1004.94
2018-12-19T03:34:38.555Z,1004.95
2018-12-19T03:35:04.662Z,1005.01
2018-12-19T03:35:30.795Z,1004.97
2018-12-19T03:35:56.902Z,1004.92
2018-12-19T03:36:23.010Z,1004.92
2018-12-19T03:36:49.114Z,1005.01
2018-12-19T03:37:15.256Z,1005.04
2018-12-19T03:37:41.352Z,1005.01
2018-12-19T03:38:07.457Z,1005.08
2018-12-19T03:38:33.565Z,1005.03
2018-12-19T03:38:59.675Z,1005.07
2018-12-19T03:39:25.784Z,1005.12
2018-12-19T03:39:52.875Z,1005.09
2018-12-19T03:40:19.010Z,1005.1
2018-12-19T03:40:45.120Z,1005.03
2018-12-19T03:41:11.227Z,1005.1
2018-12-19T03:41:37.417Z,1005.1
2018-12-19T03:42:03.519Z,1005.12
2018-12-19T03:42:29.622Z,1005.19
2018-12-19T03:42:55.736Z,1005.12
2018-12-19T03:43:21.836Z,1005.18
2018-12-19T03:43:47.969Z,1005.19
2018-12-19T03:44:14.108Z,1005.22
2018-12-19T03:44:40.219Z,1005.1
2018-12-19T03:45:06.329Z,1005.15
2018-12-19T03:45:32.458Z,1005.14
2018-12-19T03:45:58.563Z,1005.08
2018-12-19T03:46:24.727Z,1005.09
2018-12-19T03:46:50.860Z,1005.12
2018-12-19T03:47:16.980Z,1005.2
2018-12-19T03:47:43.112Z,1005.14
2018-12-19T03:48:09.228Z,1005.11
2018-12-19T03:48:35.326Z,1005.12
2018-12-19T03:49:01.451Z,1005.11
2018-12-19T03:49:27.558Z,1005.11
2018-12-19T03:49:53.668Z,1005.09
2018-12-19T03:50:19.831Z,1005.12
2018-12-19T03:50:45.959Z,1005.05
2018-12-19T03:51:12.065Z,1005.02
2018-12-19T03:51:38.170Z,1005
2018-12-19T03:52:04.267Z,1004.97
2018-12-19T03:52:30.374Z,1004.96
2018-12-19T03:52:56.480Z,1004.92
2018-12-19T03:53:22.585Z,1004.99
2018-12-19T03:53:48.687Z,1004.97
2018-12-19T03:54:14.792Z,1004.97
2018-12-19T03:54:40.892Z,1004.99
2018-12-19T03:55:07.006Z,1004.93
2018-12-19T03:55:33.103Z,1005.03
2018-12-19T03:55:59.237Z,1004.87
2018-12-19T03:56:25.346Z,1004.93
2018-12-19T03:56:51.481Z,1004.91
2018-12-19T03:57:17.578Z,1004.95
2018-12-19T03:57:43.685Z,1004.9
2018-12-19T03:58:09.794Z,1004.9
2018-12-19T03:58:35.900Z,1004.88
2018-12-19T03:59:02.025Z,1004.85
2018-12-19T03:59:28.132Z,1004.89
2018-12-19T03:59:54.244Z,1004.88
2018-12-19T04:00:20.344Z,1004.85
2018-12-19T04:00:46.448Z,1004.83
2018-12-19T04:01:12.554Z,1004.79
2018-12-19T04:01:38.661Z,1004.84
2018-12-19T04:02:04.773Z,1004.86
2018-12-19T04:02:30.909Z,1004.83
2018-12-19T04:02:57.041Z,1004.82
2018-12-19T04:03:23.140Z,1004.81
2018-12-19T04:03:49.305Z,1004.79
2018-12-19T04:04:15.468Z,1004.85
2018-12-19T04:04:41.598Z,1004.82
2018-12-19T04:05:07.733Z,1004.83
2018-12-19T04:05:33.850Z,1004.89
2018-12-19T04:05:59.979Z,1004.76
2018-12-19T04:06:26.117Z,1004.77
2018-12-19T04:06:52.217Z,1004.69
2018-12-19T04:07:18.330Z,1004.75
2018-12-19T04:07:44.429Z,1004.76
2018-12-19T04:08:10.542Z,1004.71
2018-12-19T04:08:36.680Z,1004.7
2018-12-19T04:09:02.785Z,1004.77
2018-12-19T04:09:28.896Z,1004.72
2018-12-19T04:09:57.852Z,1004.74
2018-12-19T04:10:22.097Z,1004.7
2018-12-19T04:10:48.202Z,1004.64
2018-12-19T04:11:14.307Z,1004.63
2018-12-19T04:11:40.417Z,1004.58
2018-12-19T04:12:06.522Z,1004.6
2018-12-19T04:12:32.688Z,1004.65
2018-12-19T04:12:58.797Z,1004.55
2018-12-19T04:13:24.900Z,1004.55
2018-12-19T04:13:51.010Z,1004.56
2018-12-19T04:14:17.136Z,1004.54
2018-12-19T04:14:43.271Z,1004.59
2018-12-19T04:15:09.404Z,1004.6
2018-12-19T04:15:35.505Z,1004.52
2018-12-19T04:16:01.611Z,1004.51
2018-12-19T04:16:27.717Z,1004.62
2018-12-19T04:16:53.826Z,1004.62
2018-12-19T04:17:20.005Z,1004.59
2018-12-19T04:17:46.089Z,1004.58
2018-12-19T04:18:12.222Z,1004.58
2018-12-19T04:18:38.326Z,1004.59
2018-12-19T04:19:04.438Z,1004.58
2018-12-19T04:19:30.538Z,1004.56
2018-12-19T04:19:56.649Z,1004.59
2018-12-19T04:20:22.744Z,1004.59
2018-12-19T04:20:48.857Z,1004.65
2018-12-19T04:21:14.993Z,1004.58
2018-12-19T04:21:41.092Z,1004.61
2018-12-19T04:22:07.200Z,1004.53
2018-12-19T04:22:33.302Z,1004.54
2018-12-19T04:22:59.405Z,1004.5
2018-12-19T04:23:25.517Z,1004.53
2018-12-19T04:23:51.650Z,1004.49
2018-12-19T04:24:17.755Z,1004.5
2018-12-19T04:24:43.864Z,1004.49
2018-12-19T04:25:09.969Z,1004.5
2018-12-19T04:25:36.095Z,1004.44
2018-12-19T04:26:02.202Z,1004.46
2018-12-19T04:26:28.307Z,1004.47
2018-12-19T04:26:54.469Z,1004.42
2018-12-19T04:27:20.574Z,1004.42
2018-12-19T04:27:46.677Z,1004.4
2018-12-19T04:28:12.846Z,1004.42
2018-12-19T04:28:38.967Z,1004.42
2018-12-19T04:29:05.079Z,1004.38
2018-12-19T04:29:31.207Z,1004.41
2018-12-19T04:29:57.321Z,1004.4
2018-12-19T04:30:23.450Z,1004.37
2018-12-19T04:30:49.561Z,1004.36
2018-12-19T04:31:15.730Z,1004.34
2018-12-19T04:31:41.829Z,1004.34
2018-12-19T04:32:07.937Z,1004.3
2018-12-19T04:32:34.041Z,1004.38
2018-12-19T04:33:00.177Z,1004.36
2018-12-19T04:33:26.312Z,1004.37
2018-12-19T04:33:52.419Z,1004.33
2018-12-19T04:34:18.544Z,1004.39
2018-12-19T04:34:44.657Z,1004.37
2018-12-19T04:35:10.761Z,1004.35
2018-12-19T04:35:36.891Z,1004.31
2018-12-19T04:36:03.000Z,1004.33
2018-12-19T04:36:29.098Z,1004.32
2018-12-19T04:36:55.215Z,1004.31
2018-12-19T04:37:21.321Z,1004.28
2018-12-19T04:37:47.432Z,1004.28
2018-12-19T04:38:13.529Z,1004.25
2018-12-19T04:38:39.658Z,1004.25
2018-12-19T04:39:05.768Z,1004.28
2018-12-19T04:39:31.899Z,1004.22
2018-12-19T04:40:05.048Z,1004.29
2018-12-19T04:40:26.087Z,1004.25
2018-12-19T04:40:52.183Z,1004.28
2018-12-19T04:41:18.288Z,1004.28
2018-12-19T04:41:44.393Z,1004.28
2018-12-19T04:42:10.527Z,1004.23
2018-12-19T04:42:36.635Z,1004.21
2018-12-19T04:43:02.792Z,1004.21
2018-12-19T04:43:28.924Z,1004.26
2018-12-19T04:43:55.036Z,1004.22
2018-12-19T04:44:21.186Z,1004.21
2018-12-19T04:44:47.323Z,1004.21
2018-12-19T04:45:13.432Z,1004.19
2018-12-19T04:45:39.535Z,1004.17
2018-12-19T04:46:05.648Z,1004.18
2018-12-19T04:46:31.778Z,1004.11
2018-12-19T04:46:57.880Z,1004.11
2018-12-19T04:47:23.994Z,1004.11
2018-12-19T04:47:50.130Z,1004.08
2018-12-19T04:48:16.259Z,1004.13
2018-12-19T04:48:42.415Z,1004.07
2018-12-19T04:49:08.522Z,1004.07
2018-12-19T04:49:34.654Z,1004.09
2018-12-19T04:50:00.766Z,1004.04
2018-12-19T04:50:26.868Z,1004.06
2018-12-19T04:50:53.014Z,1004.06
2018-12-19T04:51:19.105Z,1004.07
2018-12-19T04:51:45.216Z,1004.09
2018-12-19T04:52:11.317Z,1004.13
2018-12-19T04:52:37.429Z,1004.14
2018-12-19T04:53:03.534Z,1004.09
2018-12-19T04:53:30.337Z,1004.11
2018-12-19T04:53:56.445Z,1004.12
2018-12-19T04:54:22.548Z,1004.16
2018-12-19T04:54:48.655Z,1004.29
2018-12-19T04:55:14.758Z,1004.29
2018-12-19T04:55:40.863Z,1004.22
2018-12-19T04:56:06.971Z,1004.26
2018-12-19T04:56:33.075Z,1004.25
2018-12-19T04:56:59.176Z,1004.23
2018-12-19T04:57:25.287Z,1004.26
2018-12-19T04:57:51.391Z,1004.22
2018-12-19T04:58:17.500Z,1004.25
2018-12-19T04:58:43.629Z,1004.16
2018-12-19T04:59:09.731Z,1004.21
2018-12-19T04:59:35.873Z,1004.18
2018-12-19T05:00:01.982Z,1004.19
2018-12-19T05:00:28.109Z,1004.19
2018-12-19T05:00:54.251Z,1004.23
2018-12-19T05:01:20.354Z,1004.24
2018-12-19T05:01:46.510Z,1004.22
2018-12-19T05:02:12.619Z,1004.27
2018-12-19T05:02:38.719Z,1004.26
2018-12-19T05:03:04.827Z,1004.27
2018-12-19T05:03:30.962Z,1004.26
2018-12-19T05:03:57.067Z,1004.24
2018-12-19T05:04:23.169Z,1004.23
2018-12-19T05:04:49.269Z,1004.24
2018-12-19T05:05:15.381Z,1004.22
2018-12-19T05:05:41.484Z,1004.24
2018-12-19T05:06:07.617Z,1004.21
2018-12-19T05:06:33.726Z,1004.21
2018-12-19T05:06:59.829Z,1004.18
2018-12-19T05:07:25.968Z,1004.19
2018-12-19T05:07:52.069Z,1004.2
2018-12-19T05:08:18.199Z,1004.22
2018-12-19T05:08:44.303Z,1004.19
2018-12-19T05:09:10.410Z,1004.2
2018-12-19T05:09:36.518Z,1004.24
2018-12-19T05:10:02.636Z,1004.23
2018-12-19T05:10:29.722Z,1004.23
2018-12-19T05:10:55.869Z,1004.28
2018-12-19T05:11:21.993Z,1004.26
2018-12-19T05:11:48.124Z,1004.28
2018-12-19T05:12:14.285Z,1004.29
2018-12-19T05:12:40.393Z,1004.3
2018-12-19T05:13:06.631Z,1004.31
2018-12-19T05:13:32.787Z,1004.36
2018-12-19T05:13:58.838Z,1004.35
2018-12-19T05:14:24.942Z,1004.38
2018-12-19T05:14:51.040Z,1004.4
2018-12-19T05:15:17.191Z,1004.35
2018-12-19T05:15:43.301Z,1004.37
2018-12-19T05:16:09.452Z,1004.39
2018-12-19T05:16:35.560Z,1004.41
2018-12-19T05:17:01.662Z,1004.38